sensor_id;sensor_type;location;lat;lon;timestamp;P1;durP1;ratioP1;P2;durP2;ratioP2
12908;SDS011;6522;49.622;6.126;2022-08-19T00:02:07;16.92;;;15.32;;
12908;SDS011;6522;49.622;6.126;2022-08-19T00:04:54;15.95;;;14.45;;
12908;SDS011;6522;49.622;6.126;2022-08-19T00:07:41;17.80;;;16.20;;
12908;SDS011;6522;49.622;6.126;2022-08-19T00:10:28;16.77;;;15.27;;
12908;SDS011;6522;49.622;6.126;2022-08-19T00:13:14;16.37;;;14.98;;
12908;SDS011;6522;49.622;6.126;2022-08-19T00:16:02;18.27;;;16.77;;
12908;SDS011;6522;49.622;6.126;2022-08-19T00:18:48;16.62;;;15.13;;
12908;SDS011;6522;49.622;6.126;2022-08-19T00:21:35;15.98;;;14.60;;
12908;SDS011;6522;49.622;6.126;2022-08-19T00:24:24;17.40;;;16.00;;
12908;SDS011;6522;49.622;6.126;2022-08-19T00:27:11;16.60;;;15.10;;
12908;SDS011;6522;49.622;6.126;2022-08-19T00:29:58;17.00;;;15.32;;
12908;SDS011;6522;49.622;6.126;2022-08-19T00:32:45;17.30;;;15.70;;
12908;SDS011;6522;49.622;6.126;2022-08-19T00:35:31;15.98;;;14.43;;
12908;SDS011;6522;49.622;6.126;2022-08-19T00:38:18;16.00;;;14.60;;
12908;SDS011;6522;49.622;6.126;2022-08-19T00:41:05;18.17;;;16.70;;
12908;SDS011;6522;49.622;6.126;2022-08-19T00:46:46;15.80;;;14.40;;
12908;SDS011;6522;49.622;6.126;2022-08-19T00:49:36;18.30;;;16.60;;
12908;SDS011;6522;49.622;6.126;2022-08-19T00:52:23;16.58;;;14.98;;
12908;SDS011;6522;49.622;6.126;2022-08-19T00:55:09;17.08;;;15.52;;
12908;SDS011;6522;49.622;6.126;2022-08-19T00:57:59;17.40;;;16.00;;
12908;SDS011;6522;49.622;6.126;2022-08-19T01:00:43;16.12;;;14.63;;
12908;SDS011;6522;49.622;6.126;2022-08-19T01:03:30;17.67;;;16.17;;
12908;SDS011;6522;49.622;6.126;2022-08-19T01:06:17;16.50;;;15.00;;
12908;SDS011;6522;49.622;6.126;2022-08-19T01:09:04;16.80;;;15.20;;
12908;SDS011;6522;49.622;6.126;2022-08-19T01:11:51;16.40;;;15.00;;
12908;SDS011;6522;49.622;6.126;2022-08-19T01:14:37;17.37;;;15.77;;
12908;SDS011;6522;49.622;6.126;2022-08-19T01:17:24;16.30;;;14.70;;
12908;SDS011;6522;49.622;6.126;2022-08-19T01:20:12;16.75;;;15.15;;
12908;SDS011;6522;49.622;6.126;2022-08-19T01:22:58;15.87;;;14.47;;
12908;SDS011;6522;49.622;6.126;2022-08-19T01:25:50;16.15;;;14.60;;
12908;SDS011;6522;49.622;6.126;2022-08-19T01:28:35;16.30;;;14.85;;
12908;SDS011;6522;49.622;6.126;2022-08-19T01:31:22;15.97;;;14.60;;
12908;SDS011;6522;49.622;6.126;2022-08-19T01:34:08;16.62;;;15.02;;
12908;SDS011;6522;49.622;6.126;2022-08-19T01:36:54;17.25;;;15.43;;
12908;SDS011;6522;49.622;6.126;2022-08-19T01:39:42;16.87;;;15.27;;
12908;SDS011;6522;49.622;6.126;2022-08-19T01:42:28;16.70;;;15.10;;
12908;SDS011;6522;49.622;6.126;2022-08-19T01:45:15;17.40;;;15.70;;
12908;SDS011;6522;49.622;6.126;2022-08-19T01:48:02;17.30;;;15.60;;
12908;SDS011;6522;49.622;6.126;2022-08-19T01:50:49;16.60;;;15.02;;
12908;SDS011;6522;49.622;6.126;2022-08-19T01:53:36;16.58;;;14.77;;
12908;SDS011;6522;49.622;6.126;2022-08-19T01:56:23;16.13;;;14.63;;
12908;SDS011;6522;49.622;6.126;2022-08-19T01:59:11;16.83;;;15.23;;
12908;SDS011;6522;49.622;6.126;2022-08-19T02:01:57;16.40;;;14.80;;
12908;SDS011;6522;49.622;6.126;2022-08-19T02:04:43;19.50;;;16.10;;
12908;SDS011;6522;49.622;6.126;2022-08-19T02:07:30;16.58;;;14.87;;
12908;SDS011;6522;49.622;6.126;2022-08-19T02:10:18;17.12;;;15.25;;
12908;SDS011;6522;49.622;6.126;2022-08-19T02:13:04;16.87;;;15.20;;
12908;SDS011;6522;49.622;6.126;2022-08-19T02:15:51;17.10;;;15.30;;
12908;SDS011;6522;49.622;6.126;2022-08-19T02:18:37;16.23;;;14.45;;
12908;SDS011;6522;49.622;6.126;2022-08-19T02:21:24;20.17;;;18.27;;
12908;SDS011;6522;49.622;6.126;2022-08-19T02:24:11;16.40;;;14.80;;
12908;SDS011;6522;49.622;6.126;2022-08-19T02:26:58;17.42;;;15.73;;
12908;SDS011;6522;49.622;6.126;2022-08-19T02:29:48;17.73;;;16.07;;
12908;SDS011;6522;49.622;6.126;2022-08-19T02:32:34;15.93;;;14.32;;
12908;SDS011;6522;49.622;6.126;2022-08-19T02:35:21;16.48;;;14.87;;
12908;SDS011;6522;49.622;6.126;2022-08-19T02:38:07;18.87;;;16.87;;
12908;SDS011;6522;49.622;6.126;2022-08-19T02:41:17;16.37;;;14.73;;
12908;SDS011;6522;49.622;6.126;2022-08-19T02:44:03;16.87;;;15.25;;
12908;SDS011;6522;49.622;6.126;2022-08-19T02:46:49;21.33;;;19.63;;
12908;SDS011;6522;49.622;6.126;2022-08-19T02:49:36;17.35;;;15.75;;
12908;SDS011;6522;49.622;6.126;2022-08-19T02:52:22;16.62;;;15.02;;
12908;SDS011;6522;49.622;6.126;2022-08-19T02:55:09;17.90;;;16.10;;
12908;SDS011;6522;49.622;6.126;2022-08-19T02:57:56;17.33;;;15.63;;
12908;SDS011;6522;49.622;6.126;2022-08-19T03:00:47;16.75;;;14.95;;
12908;SDS011;6522;49.622;6.126;2022-08-19T03:03:32;17.60;;;15.70;;
12908;SDS011;6522;49.622;6.126;2022-08-19T03:06:19;17.80;;;15.90;;
12908;SDS011;6522;49.622;6.126;2022-08-19T03:09:06;15.77;;;14.30;;
12908;SDS011;6522;49.622;6.126;2022-08-19T03:11:53;16.87;;;15.27;;
12908;SDS011;6522;49.622;6.126;2022-08-19T03:14:39;14.98;;;13.32;;
12908;SDS011;6522;49.622;6.126;2022-08-19T03:17:26;17.27;;;15.67;;
12908;SDS011;6522;49.622;6.126;2022-08-19T03:20:12;16.37;;;14.70;;
12908;SDS011;6522;49.622;6.126;2022-08-19T03:22:59;17.17;;;15.50;;
12908;SDS011;6522;49.622;6.126;2022-08-19T03:25:46;17.63;;;14.97;;
12908;SDS011;6522;49.622;6.126;2022-08-19T03:28:32;17.60;;;15.80;;
12908;SDS011;6522;49.622;6.126;2022-08-19T03:31:20;16.83;;;15.23;;
12908;SDS011;6522;49.622;6.126;2022-08-19T03:34:06;17.67;;;15.80;;
12908;SDS011;6522;49.622;6.126;2022-08-19T03:36:56;18.37;;;16.50;;
12908;SDS011;6522;49.622;6.126;2022-08-19T03:39:42;19.23;;;17.17;;
12908;SDS011;6522;49.622;6.126;2022-08-19T03:42:29;18.10;;;16.40;;
12908;SDS011;6522;49.622;6.126;2022-08-19T03:45:16;17.80;;;16.00;;
12908;SDS011;6522;49.622;6.126;2022-08-19T03:48:03;20.37;;;16.43;;
12908;SDS011;6522;49.622;6.126;2022-08-19T03:50:50;17.30;;;15.50;;
12908;SDS011;6522;49.622;6.126;2022-08-19T03:53:37;17.45;;;15.75;;
12908;SDS011;6522;49.622;6.126;2022-08-19T03:56:24;20.00;;;16.90;;
12908;SDS011;6522;49.622;6.126;2022-08-19T03:59:14;16.62;;;15.02;;
12908;SDS011;6522;49.622;6.126;2022-08-19T04:02:01;17.45;;;15.75;;
12908;SDS011;6522;49.622;6.126;2022-08-19T04:04:47;21.05;;;16.30;;
12908;SDS011;6522;49.622;6.126;2022-08-19T04:07:33;19.00;;;17.10;;
12908;SDS011;6522;49.622;6.126;2022-08-19T04:10:20;15.77;;;14.15;;
12908;SDS011;6522;49.622;6.126;2022-08-19T04:13:07;17.42;;;15.52;;
12908;SDS011;6522;49.622;6.126;2022-08-19T04:15:54;15.57;;;13.93;;
12908;SDS011;6522;49.622;6.126;2022-08-19T04:18:40;17.90;;;16.10;;
12908;SDS011;6522;49.622;6.126;2022-08-19T04:21:28;17.05;;;15.20;;
12908;SDS011;6522;49.622;6.126;2022-08-19T04:24:15;19.15;;;17.23;;
12908;SDS011;6522;49.622;6.126;2022-08-19T04:27:02;19.98;;;16.02;;
12908;SDS011;6522;49.622;6.126;2022-08-19T04:29:48;18.73;;;15.48;;
12908;SDS011;6522;49.622;6.126;2022-08-19T04:32:35;19.10;;;17.02;;
12908;SDS011;6522;49.622;6.126;2022-08-19T04:35:21;17.55;;;15.60;;
12908;SDS011;6522;49.622;6.126;2022-08-19T04:38:08;18.30;;;15.75;;
12908;SDS011;6522;49.622;6.126;2022-08-19T04:40:55;18.15;;;16.33;;
12908;SDS011;6522;49.622;6.126;2022-08-19T04:44:00;19.70;;;16.55;;
12908;SDS011;6522;49.622;6.126;2022-08-19T04:46:47;19.92;;;17.77;;
12908;SDS011;6522;49.622;6.126;2022-08-19T04:49:34;17.67;;;15.73;;
12908;SDS011;6522;49.622;6.126;2022-08-19T04:52:20;20.10;;;16.58;;
12908;SDS011;6522;49.622;6.126;2022-08-19T04:55:07;18.70;;;16.80;;
12908;SDS011;6522;49.622;6.126;2022-08-19T04:57:54;21.95;;;15.48;;
12908;SDS011;6522;49.622;6.126;2022-08-19T05:00:41;23.38;;;16.85;;
12908;SDS011;6522;49.622;6.126;2022-08-19T05:03:28;16.55;;;14.82;;
12908;SDS011;6522;49.622;6.126;2022-08-19T05:06:16;17.20;;;15.38;;
12908;SDS011;6522;49.622;6.126;2022-08-19T05:09:03;17.08;;;15.40;;
12908;SDS011;6522;49.622;6.126;2022-08-19T05:11:49;16.25;;;14.55;;
12908;SDS011;6522;49.622;6.126;2022-08-19T05:14:36;15.82;;;14.02;;
12908;SDS011;6522;49.622;6.126;2022-08-19T05:17:22;17.00;;;15.05;;
12908;SDS011;6522;49.622;6.126;2022-08-19T05:20:09;15.15;;;13.60;;
12908;SDS011;6522;49.622;6.126;2022-08-19T05:23:14;16.58;;;14.87;;
12908;SDS011;6522;49.622;6.126;2022-08-19T05:26:01;16.70;;;14.85;;
12908;SDS011;6522;49.622;6.126;2022-08-19T05:28:48;18.00;;;16.05;;
12908;SDS011;6522;49.622;6.126;2022-08-19T05:31:35;17.70;;;15.80;;
12908;SDS011;6522;49.622;6.126;2022-08-19T05:34:22;16.85;;;15.25;;
12908;SDS011;6522;49.622;6.126;2022-08-19T05:37:08;18.33;;;16.42;;
12908;SDS011;6522;49.622;6.126;2022-08-19T05:39:55;16.98;;;15.18;;
12908;SDS011;6522;49.622;6.126;2022-08-19T05:42:42;16.83;;;15.23;;
12908;SDS011;6522;49.622;6.126;2022-08-19T05:45:29;19.27;;;17.27;;
12908;SDS011;6522;49.622;6.126;2022-08-19T05:48:15;19.00;;;17.17;;
12908;SDS011;6522;49.622;6.126;2022-08-19T05:51:05;19.33;;;17.43;;
12908;SDS011;6522;49.622;6.126;2022-08-19T05:53:52;19.35;;;17.40;;
12908;SDS011;6522;49.622;6.126;2022-08-19T05:56:39;18.83;;;16.83;;
12908;SDS011;6522;49.622;6.126;2022-08-19T05:59:26;20.50;;;17.87;;
12908;SDS011;6522;49.622;6.126;2022-08-19T06:02:12;19.93;;;17.83;;
12908;SDS011;6522;49.622;6.126;2022-08-19T06:04:59;18.10;;;16.30;;
12908;SDS011;6522;49.622;6.126;2022-08-19T06:07:46;19.08;;;16.98;;
12908;SDS011;6522;49.622;6.126;2022-08-19T06:10:33;19.47;;;17.23;;
12908;SDS011;6522;49.622;6.126;2022-08-19T06:13:20;18.62;;;16.73;;
12908;SDS011;6522;49.622;6.126;2022-08-19T06:16:07;19.73;;;17.80;;
12908;SDS011;6522;49.622;6.126;2022-08-19T06:18:54;18.45;;;16.65;;
12908;SDS011;6522;49.622;6.126;2022-08-19T06:21:41;18.25;;;16.52;;
12908;SDS011;6522;49.622;6.126;2022-08-19T06:24:28;20.30;;;18.50;;
12908;SDS011;6522;49.622;6.126;2022-08-19T06:27:14;18.10;;;16.30;;
12908;SDS011;6522;49.622;6.126;2022-08-19T06:30:02;18.48;;;16.67;;
12908;SDS011;6522;49.622;6.126;2022-08-19T06:32:48;19.50;;;17.60;;
12908;SDS011;6522;49.622;6.126;2022-08-19T06:35:38;18.83;;;17.03;;
12908;SDS011;6522;49.622;6.126;2022-08-19T06:38:21;19.20;;;17.20;;
12908;SDS011;6522;49.622;6.126;2022-08-19T06:41:08;22.43;;;20.37;;
12908;SDS011;6522;49.622;6.126;2022-08-19T06:43:55;20.70;;;18.60;;
12908;SDS011;6522;49.622;6.126;2022-08-19T06:46:42;20.00;;;18.20;;
12908;SDS011;6522;49.622;6.126;2022-08-19T06:49:29;19.50;;;17.67;;
12908;SDS011;6522;49.622;6.126;2022-08-19T06:52:15;21.37;;;19.45;;
12908;SDS011;6522;49.622;6.126;2022-08-19T06:55:02;21.87;;;20.00;;
12908;SDS011;6522;49.622;6.126;2022-08-19T06:57:49;23.55;;;21.35;;
12908;SDS011;6522;49.622;6.126;2022-08-19T07:00:36;23.70;;;21.43;;
12908;SDS011;6522;49.622;6.126;2022-08-19T07:03:23;22.83;;;20.73;;
12908;SDS011;6522;49.622;6.126;2022-08-19T07:06:11;24.23;;;22.13;;
12908;SDS011;6522;49.622;6.126;2022-08-19T07:08:56;24.60;;;22.10;;
12908;SDS011;6522;49.622;6.126;2022-08-19T07:11:47;24.60;;;22.40;;
12908;SDS011;6522;49.622;6.126;2022-08-19T07:14:33;25.10;;;22.80;;
12908;SDS011;6522;49.622;6.126;2022-08-19T07:17:23;28.27;;;25.77;;
12908;SDS011;6522;49.622;6.126;2022-08-19T07:20:10;28.50;;;25.83;;
12908;SDS011;6522;49.622;6.126;2022-08-19T07:22:57;26.85;;;24.58;;
12908;SDS011;6522;49.622;6.126;2022-08-19T07:25:43;28.37;;;25.90;;
12908;SDS011;6522;49.622;6.126;2022-08-19T07:28:30;27.15;;;24.85;;
12908;SDS011;6522;49.622;6.126;2022-08-19T07:31:20;30.60;;;28.10;;
12908;SDS011;6522;49.622;6.126;2022-08-19T07:34:07;31.30;;;27.90;;
12908;SDS011;6522;49.622;6.126;2022-08-19T07:36:53;31.63;;;28.93;;
12908;SDS011;6522;49.622;6.126;2022-08-19T07:39:39;28.13;;;25.80;;
12908;SDS011;6522;49.622;6.126;2022-08-19T07:42:26;28.37;;;25.93;;
12908;SDS011;6522;49.622;6.126;2022-08-19T07:45:13;28.25;;;25.75;;
12908;SDS011;6522;49.622;6.126;2022-08-19T07:48:00;32.70;;;29.53;;
12908;SDS011;6522;49.622;6.126;2022-08-19T07:50:46;28.07;;;25.67;;
12908;SDS011;6522;49.622;6.126;2022-08-19T07:53:33;30.50;;;27.70;;
12908;SDS011;6522;49.622;6.126;2022-08-19T07:56:20;28.10;;;25.70;;
12908;SDS011;6522;49.622;6.126;2022-08-19T07:59:06;30.47;;;27.77;;
12908;SDS011;6522;49.622;6.126;2022-08-19T08:01:53;29.40;;;27.00;;
12908;SDS011;6522;49.622;6.126;2022-08-19T08:04:40;29.93;;;27.60;;
12908;SDS011;6522;49.622;6.126;2022-08-19T08:07:45;31.73;;;29.23;;
12908;SDS011;6522;49.622;6.126;2022-08-19T08:10:50;32.57;;;29.77;;
12908;SDS011;6522;49.622;6.126;2022-08-19T08:13:37;29.20;;;27.00;;
12908;SDS011;6522;49.622;6.126;2022-08-19T08:16:24;32.23;;;29.13;;
12908;SDS011;6522;49.622;6.126;2022-08-19T08:19:11;28.80;;;26.70;;
12908;SDS011;6522;49.622;6.126;2022-08-19T08:21:57;31.53;;;29.10;;
12908;SDS011;6522;49.622;6.126;2022-08-19T08:24:43;29.93;;;27.53;;
12908;SDS011;6522;49.622;6.126;2022-08-19T08:27:30;29.77;;;27.43;;
12908;SDS011;6522;49.622;6.126;2022-08-19T08:30:18;30.27;;;27.87;;
12908;SDS011;6522;49.622;6.126;2022-08-19T08:33:03;29.50;;;27.00;;
12908;SDS011;6522;49.622;6.126;2022-08-19T08:35:50;27.33;;;25.40;;
12908;SDS011;6522;49.622;6.126;2022-08-19T08:38:37;28.20;;;26.10;;
12908;SDS011;6522;49.622;6.126;2022-08-19T08:45:13;28.90;;;26.20;;
12908;SDS011;6522;49.622;6.126;2022-08-19T08:47:19;30.47;;;28.10;;
12908;SDS011;6522;49.622;6.126;2022-08-19T08:50:08;30.93;;;28.10;;
12908;SDS011;6522;49.622;6.126;2022-08-19T08:52:53;30.63;;;28.00;;
12908;SDS011;6522;49.622;6.126;2022-08-19T08:55:40;29.07;;;26.67;;
12908;SDS011;6522;49.622;6.126;2022-08-19T08:58:48;30.27;;;28.07;;
12908;SDS011;6522;49.622;6.126;2022-08-19T09:01:16;32.00;;;29.67;;
12908;SDS011;6522;49.622;6.126;2022-08-19T09:04:04;31.27;;;28.97;;
12908;SDS011;6522;49.622;6.126;2022-08-19T09:07:06;30.07;;;27.77;;
12908;SDS011;6522;49.622;6.126;2022-08-19T09:09:47;30.20;;;27.90;;
12908;SDS011;6522;49.622;6.126;2022-08-19T09:12:43;32.67;;;30.27;;
12908;SDS011;6522;49.622;6.126;2022-08-19T09:15:29;30.43;;;28.10;;
12908;SDS011;6522;49.622;6.126;2022-08-19T09:18:12;31.20;;;28.97;;
12908;SDS011;6522;49.622;6.126;2022-08-19T09:20:59;30.50;;;28.00;;
12908;SDS011;6522;49.622;6.126;2022-08-19T09:23:46;31.03;;;28.77;;
12908;SDS011;6522;49.622;6.126;2022-08-19T09:26:32;30.70;;;28.17;;
12908;SDS011;6522;49.622;6.126;2022-08-19T09:29:19;30.13;;;27.87;;
12908;SDS011;6522;49.622;6.126;2022-08-19T09:32:06;31.17;;;28.67;;
12908;SDS011;6522;49.622;6.126;2022-08-19T09:34:52;30.43;;;28.13;;
12908;SDS011;6522;49.622;6.126;2022-08-19T09:37:42;31.13;;;29.00;;
12908;SDS011;6522;49.622;6.126;2022-08-19T09:40:29;29.90;;;27.73;;
12908;SDS011;6522;49.622;6.126;2022-08-19T09:43:15;31.40;;;28.80;;
12908;SDS011;6522;49.622;6.126;2022-08-19T09:46:03;28.30;;;26.30;;
12908;SDS011;6522;49.622;6.126;2022-08-19T09:48:49;30.27;;;28.07;;
12908;SDS011;6522;49.622;6.126;2022-08-19T09:51:36;28.60;;;26.70;;
12908;SDS011;6522;49.622;6.126;2022-08-19T09:54:23;28.00;;;26.20;;
12908;SDS011;6522;49.622;6.126;2022-08-19T09:57:09;29.17;;;27.07;;
12908;SDS011;6522;49.622;6.126;2022-08-19T09:59:56;29.63;;;27.73;;
12908;SDS011;6522;49.622;6.126;2022-08-19T10:02:43;27.10;;;25.30;;
12908;SDS011;6522;49.622;6.126;2022-08-19T10:05:29;28.13;;;26.13;;
12908;SDS011;6522;49.622;6.126;2022-08-19T10:08:35;30.13;;;27.97;;
12908;SDS011;6522;49.622;6.126;2022-08-19T10:11:22;30.00;;;27.80;;
12908;SDS011;6522;49.622;6.126;2022-08-19T10:14:08;28.33;;;26.30;;
12908;SDS011;6522;49.622;6.126;2022-08-19T10:16:55;26.97;;;24.97;;
12908;SDS011;6522;49.622;6.126;2022-08-19T10:19:42;26.03;;;24.20;;
12908;SDS011;6522;49.622;6.126;2022-08-19T10:22:28;27.23;;;25.47;;
12908;SDS011;6522;49.622;6.126;2022-08-19T10:25:15;28.93;;;26.80;;
12908;SDS011;6522;49.622;6.126;2022-08-19T10:28:02;27.80;;;25.90;;
12908;SDS011;6522;49.622;6.126;2022-08-19T10:30:49;28.83;;;26.63;;
12908;SDS011;6522;49.622;6.126;2022-08-19T10:33:36;30.77;;;28.43;;
12908;SDS011;6522;49.622;6.126;2022-08-19T10:36:23;31.17;;;28.77;;
12908;SDS011;6522;49.622;6.126;2022-08-19T10:39:09;28.77;;;26.77;;
12908;SDS011;6522;49.622;6.126;2022-08-19T10:41:56;29.60;;;27.47;;
12908;SDS011;6522;49.622;6.126;2022-08-19T10:44:43;26.67;;;24.70;;
12908;SDS011;6522;49.622;6.126;2022-08-19T10:47:30;26.70;;;24.97;;
12908;SDS011;6522;49.622;6.126;2022-08-19T10:50:17;25.20;;;23.70;;
12908;SDS011;6522;49.622;6.126;2022-08-19T10:53:22;24.97;;;23.47;;
12908;SDS011;6522;49.622;6.126;2022-08-19T10:56:09;26.10;;;24.40;;
12908;SDS011;6522;49.622;6.126;2022-08-19T10:59:15;25.93;;;24.40;;
12908;SDS011;6522;49.622;6.126;2022-08-19T11:02:02;22.02;;;20.52;;
12908;SDS011;6522;49.622;6.126;2022-08-19T11:04:48;23.67;;;22.27;;
12908;SDS011;6522;49.622;6.126;2022-08-19T11:07:34;24.80;;;23.30;;
12908;SDS011;6522;49.622;6.126;2022-08-19T11:10:21;24.37;;;22.77;;
12908;SDS011;6522;49.622;6.126;2022-08-19T11:13:08;25.37;;;23.67;;
12908;SDS011;6522;49.622;6.126;2022-08-19T11:15:58;25.80;;;24.20;;
12908;SDS011;6522;49.622;6.126;2022-08-19T11:18:47;23.20;;;21.80;;
12908;SDS011;6522;49.622;6.126;2022-08-19T11:21:32;19.23;;;18.02;;
12908;SDS011;6522;49.622;6.126;2022-08-19T11:24:19;22.40;;;21.10;;
12908;SDS011;6522;49.622;6.126;2022-08-19T11:27:07;17.85;;;16.85;;
12908;SDS011;6522;49.622;6.126;2022-08-19T11:29:52;19.40;;;18.40;;
12908;SDS011;6522;49.622;6.126;2022-08-19T11:32:40;17.17;;;16.07;;
12908;SDS011;6522;49.622;6.126;2022-08-19T11:35:26;21.63;;;20.20;;
12908;SDS011;6522;49.622;6.126;2022-08-19T11:38:13;20.90;;;19.53;;
12908;SDS011;6522;49.622;6.126;2022-08-19T11:41:00;18.75;;;17.40;;
12908;SDS011;6522;49.622;6.126;2022-08-19T11:43:47;19.80;;;18.60;;
12908;SDS011;6522;49.622;6.126;2022-08-19T11:46:34;19.63;;;18.63;;
12908;SDS011;6522;49.622;6.126;2022-08-19T11:49:20;21.87;;;20.57;;
12908;SDS011;6522;49.622;6.126;2022-08-19T11:52:07;20.70;;;19.60;;
12908;SDS011;6522;49.622;6.126;2022-08-19T11:54:54;21.70;;;20.40;;
12908;SDS011;6522;49.622;6.126;2022-08-19T11:57:40;22.20;;;20.67;;
12908;SDS011;6522;49.622;6.126;2022-08-19T12:00:27;22.03;;;20.73;;
12908;SDS011;6522;49.622;6.126;2022-08-19T12:03:14;23.93;;;22.47;;
12908;SDS011;6522;49.622;6.126;2022-08-19T12:06:05;25.83;;;24.03;;
12908;SDS011;6522;49.622;6.126;2022-08-19T12:08:51;24.77;;;23.00;;
12908;SDS011;6522;49.622;6.126;2022-08-19T12:11:38;25.53;;;23.93;;
12908;SDS011;6522;49.622;6.126;2022-08-19T12:14:24;25.77;;;23.97;;
12908;SDS011;6522;49.622;6.126;2022-08-19T12:17:11;25.40;;;23.80;;
12908;SDS011;6522;49.622;6.126;2022-08-19T12:19:58;27.57;;;25.70;;
12908;SDS011;6522;49.622;6.126;2022-08-19T12:22:45;26.60;;;24.70;;
12908;SDS011;6522;49.622;6.126;2022-08-19T12:25:31;28.60;;;26.50;;
12908;SDS011;6522;49.622;6.126;2022-08-19T12:28:22;28.07;;;26.20;;
12908;SDS011;6522;49.622;6.126;2022-08-19T12:31:08;27.73;;;25.67;;
12908;SDS011;6522;49.622;6.126;2022-08-19T12:33:55;25.97;;;24.17;;
12908;SDS011;6522;49.622;6.126;2022-08-19T12:36:42;25.87;;;23.77;;
12908;SDS011;6522;49.622;6.126;2022-08-19T12:39:29;25.70;;;23.80;;
12908;SDS011;6522;49.622;6.126;2022-08-19T12:42:16;24.80;;;23.20;;
12908;SDS011;6522;49.622;6.126;2022-08-19T12:45:03;22.70;;;21.10;;
12908;SDS011;6522;49.622;6.126;2022-08-19T12:47:49;22.73;;;21.23;;
12908;SDS011;6522;49.622;6.126;2022-08-19T12:50:38;23.30;;;21.67;;
12908;SDS011;6522;49.622;6.126;2022-08-19T12:53:23;21.97;;;20.57;;
12908;SDS011;6522;49.622;6.126;2022-08-19T12:56:10;22.23;;;20.90;;
12908;SDS011;6522;49.622;6.126;2022-08-19T12:58:57;22.13;;;20.80;;
12908;SDS011;6522;49.622;6.126;2022-08-19T13:01:44;21.73;;;20.43;;
12908;SDS011;6522;49.622;6.126;2022-08-19T13:04:31;23.10;;;21.30;;
12908;SDS011;6522;49.622;6.126;2022-08-19T13:07:18;22.13;;;20.60;;
12908;SDS011;6522;49.622;6.126;2022-08-19T13:10:06;22.13;;;20.47;;
12908;SDS011;6522;49.622;6.126;2022-08-19T13:12:52;21.83;;;20.53;;
12908;SDS011;6522;49.622;6.126;2022-08-19T13:15:39;20.17;;;18.87;;
12908;SDS011;6522;49.622;6.126;2022-08-19T13:18:25;19.97;;;18.83;;
12908;SDS011;6522;49.622;6.126;2022-08-19T13:21:11;20.17;;;18.97;;
12908;SDS011;6522;49.622;6.126;2022-08-19T13:23:58;21.03;;;19.83;;
12908;SDS011;6522;49.622;6.126;2022-08-19T13:26:45;17.65;;;16.60;;
12908;SDS011;6522;49.622;6.126;2022-08-19T13:29:32;19.30;;;18.30;;
12908;SDS011;6522;49.622;6.126;2022-08-19T13:32:37;19.80;;;18.70;;
12908;SDS011;6522;49.622;6.126;2022-08-19T13:35:44;19.90;;;18.90;;
12908;SDS011;6522;49.622;6.126;2022-08-19T13:38:29;19.27;;;18.27;;
12908;SDS011;6522;49.622;6.126;2022-08-19T13:41:16;18.30;;;17.40;;
12908;SDS011;6522;49.622;6.126;2022-08-19T13:44:03;18.33;;;17.43;;
12908;SDS011;6522;49.622;6.126;2022-08-19T13:46:49;18.30;;;17.40;;
12908;SDS011;6522;49.622;6.126;2022-08-19T13:49:36;17.70;;;16.80;;
12908;SDS011;6522;49.622;6.126;2022-08-19T13:52:23;17.00;;;16.20;;
12908;SDS011;6522;49.622;6.126;2022-08-19T13:55:10;18.43;;;17.60;;
12908;SDS011;6522;49.622;6.126;2022-08-19T13:57:57;18.23;;;17.43;;
12908;SDS011;6522;49.622;6.126;2022-08-19T14:00:43;15.38;;;14.57;;
12908;SDS011;6522;49.622;6.126;2022-08-19T14:03:29;17.70;;;16.90;;
12908;SDS011;6522;49.622;6.126;2022-08-19T14:06:16;17.67;;;16.87;;
12908;SDS011;6522;49.622;6.126;2022-08-19T14:09:03;17.70;;;16.80;;
12908;SDS011;6522;49.622;6.126;2022-08-19T14:11:49;18.30;;;17.20;;
12908;SDS011;6522;49.622;6.126;2022-08-19T14:14:37;17.40;;;16.60;;
12908;SDS011;6522;49.622;6.126;2022-08-19T14:17:23;18.00;;;17.10;;
12908;SDS011;6522;49.622;6.126;2022-08-19T14:20:10;18.90;;;17.83;;
12908;SDS011;6522;49.622;6.126;2022-08-19T14:22:56;19.50;;;18.37;;
12908;SDS011;6522;49.622;6.126;2022-08-19T14:25:44;19.00;;;18.00;;
12908;SDS011;6522;49.622;6.126;2022-08-19T14:28:30;19.23;;;18.13;;
12908;SDS011;6522;49.622;6.126;2022-08-19T14:31:18;19.50;;;18.40;;
12908;SDS011;6522;49.622;6.126;2022-08-19T14:34:03;18.50;;;17.60;;
12908;SDS011;6522;49.622;6.126;2022-08-19T14:36:50;17.20;;;16.30;;
12908;SDS011;6522;49.622;6.126;2022-08-19T14:39:37;17.47;;;16.57;;
12908;SDS011;6522;49.622;6.126;2022-08-19T14:42:24;17.80;;;16.90;;
12908;SDS011;6522;49.622;6.126;2022-08-19T14:45:11;16.13;;;15.33;;
12908;SDS011;6522;49.622;6.126;2022-08-19T14:47:58;16.50;;;15.70;;
12908;SDS011;6522;49.622;6.126;2022-08-19T14:50:45;13.80;;;13.10;;
12908;SDS011;6522;49.622;6.126;2022-08-19T14:53:32;13.70;;;13.00;;
12908;SDS011;6522;49.622;6.126;2022-08-19T14:56:19;16.60;;;15.83;;
12908;SDS011;6522;49.622;6.126;2022-08-19T14:59:05;13.57;;;12.87;;
12908;SDS011;6522;49.622;6.126;2022-08-19T15:01:52;15.70;;;15.00;;
12908;SDS011;6522;49.622;6.126;2022-08-19T15:04:38;14.10;;;13.30;;
12908;SDS011;6522;49.622;6.126;2022-08-19T15:07:25;11.75;;;11.15;;
12908;SDS011;6522;49.622;6.126;2022-08-19T15:10:13;12.30;;;11.60;;
12908;SDS011;6522;49.622;6.126;2022-08-19T15:12:59;11.80;;;11.20;;
12908;SDS011;6522;49.622;6.126;2022-08-19T15:15:45;8.40;;;7.90;;
12908;SDS011;6522;49.622;6.126;2022-08-19T15:18:32;10.73;;;9.93;;
12908;SDS011;6522;49.622;6.126;2022-08-19T15:21:19;10.67;;;10.07;;
12908;SDS011;6522;49.622;6.126;2022-08-19T15:24:06;11.47;;;10.87;;
12908;SDS011;6522;49.622;6.126;2022-08-19T15:26:53;12.00;;;11.40;;
12908;SDS011;6522;49.622;6.126;2022-08-19T15:29:39;12.57;;;11.97;;
12908;SDS011;6522;49.622;6.126;2022-08-19T15:32:26;12.97;;;12.37;;
12908;SDS011;6522;49.622;6.126;2022-08-19T15:35:13;13.30;;;12.50;;
12908;SDS011;6522;49.622;6.126;2022-08-19T15:38:00;13.57;;;12.60;;
12908;SDS011;6522;49.622;6.126;2022-08-19T15:40:47;12.80;;;12.20;;
12908;SDS011;6522;49.622;6.126;2022-08-19T15:43:33;13.30;;;12.60;;
12908;SDS011;6522;49.622;6.126;2022-08-19T15:46:20;13.23;;;12.43;;
12908;SDS011;6522;49.622;6.126;2022-08-19T15:49:07;11.97;;;11.37;;
12908;SDS011;6522;49.622;6.126;2022-08-19T15:51:54;13.50;;;12.80;;
12908;SDS011;6522;49.622;6.126;2022-08-19T15:54:40;13.67;;;12.77;;
12908;SDS011;6522;49.622;6.126;2022-08-19T15:57:27;13.47;;;12.87;;
12908;SDS011;6522;49.622;6.126;2022-08-19T16:00:14;13.93;;;13.23;;
12908;SDS011;6522;49.622;6.126;2022-08-19T16:03:19;13.97;;;13.17;;
12908;SDS011;6522;49.622;6.126;2022-08-19T16:06:24;13.37;;;12.73;;
12908;SDS011;6522;49.622;6.126;2022-08-19T16:09:11;13.80;;;13.00;;
12908;SDS011;6522;49.622;6.126;2022-08-19T16:11:58;13.80;;;13.20;;
12908;SDS011;6522;49.622;6.126;2022-08-19T16:14:44;11.65;;;11.05;;
12908;SDS011;6522;49.622;6.126;2022-08-19T16:17:31;13.27;;;12.67;;
12908;SDS011;6522;49.622;6.126;2022-08-19T16:20:17;13.83;;;13.13;;
12908;SDS011;6522;49.622;6.126;2022-08-19T16:23:04;13.47;;;12.83;;
12908;SDS011;6522;49.622;6.126;2022-08-19T16:25:51;13.33;;;12.67;;
12908;SDS011;6522;49.622;6.126;2022-08-19T16:28:37;13.63;;;13.03;;
12908;SDS011;6522;49.622;6.126;2022-08-19T16:31:25;11.40;;;10.80;;
12908;SDS011;6522;49.622;6.126;2022-08-19T16:34:11;13.53;;;12.83;;
12908;SDS011;6522;49.622;6.126;2022-08-19T16:36:58;13.07;;;12.37;;
12908;SDS011;6522;49.622;6.126;2022-08-19T16:39:45;12.80;;;12.10;;
12908;SDS011;6522;49.622;6.126;2022-08-19T16:42:32;13.13;;;12.53;;